| time (UTC) | temp F | wind direction | speed MPH | gust MPH | rain 1hr in | rain 24hr in | rain mn in | humidity % | barometer mb |
| 20260906120106 | 51 | 0 | 0.0 | 0.0 | 0.00 | 0.00 | 0.00 | 93 | 1014.3 |
| 20260906114613 | 51 | 0 | 0.0 | 0.0 | 0.00 | 0.00 | 0.00 | 93 | 1014.3 |
| 20260906113107 | 51 | 0 | 0.0 | 0.0 | 0.00 | 0.00 | 0.00 | 92 | 1014.1 |
| 20260906111602 | 51 | 0 | 0.0 | 0.0 | 0.00 | 0.00 | 0.00 | 92 | 1014.1 |
| 20260906110115 | 51 | 332 | 0.0 | 2.0 | 0.00 | 0.00 | 0.00 | 92 | 1014.1 |
| 20260906104628 | 51 | 0 | 0.0 | 0.0 | 0.00 | 0.00 | 0.00 | 91 | 1014.2 |
| 20260906103110 | 51 | 0 | 0.0 | 0.0 | 0.00 | 0.00 | 0.00 | 91 | 1014.2 |
| 20260906101604 | 52 | 282 | 1.0 | 3.0 | 0.00 | 0.00 | 0.00 | 91 | 1014.2 |
| 20260906100059 | 52 | 0 | 0.0 | 0.0 | 0.00 | 0.00 | 0.00 | 91 | 1014.1 |
| 20260906094643 | 53 | 0 | 0.0 | 0.0 | 0.00 | 0.00 | 0.00 | 91 | 1014.2 |
| 20260906093108 | 53 | 0 | 0.0 | 0.0 | 0.00 | 0.00 | 0.00 | 90 | 1014.3 |
| 20260906091619 | 54 | 0 | 0.0 | 0.0 | 0.00 | 0.00 | 0.00 | 90 | 1014.3 |
| 20260906090120 | 54 | 0 | 0.0 | 0.0 | 0.00 | 0.00 | 0.00 | 90 | 1014.3 |
| 20260906084601 | 55 | 0 | 0.0 | 0.0 | 0.00 | 0.00 | 0.00 | 90 | 1014.3 |
| 20260906083101 | 56 | 0 | 0.0 | 0.0 | 0.00 | 0.00 | 0.00 | 90 | 1014.3 |
| 20260906081603 | 56 | 0 | 0.0 | 1.0 | 0.00 | 0.00 | 0.00 | 90 | 1014.4 |
| 20260906080100 | 56 | 213 | 0.0 | 2.0 | 0.00 | 0.00 | 0.00 | 89 | 1014.4 |
| 20260906074613 | 56 | 0 | 0.0 | 0.0 | 0.00 | 0.00 | 0.00 | 89 | 1014.4 |
| 20260906073059 | 56 | 0 | 1.0 | 4.0 | 0.00 | 0.00 | 0.00 | 89 | 1014.4 |
| 20260906071604 | 57 | 206 | 0.0 | 4.0 | 0.00 | 0.00 | 0.00 | 88 | 1014.4 |
| 20260906070103 | 57 | 182 | 1.0 | 4.0 | 0.00 | 0.00 | 0.00 | 88 | 1014.3 |
| 20260906064603 | 57 | 0 | 1.0 | 5.0 | 0.00 | 0.00 | 0.00 | 87 | 1014.4 |
| 20260906063100 | 57 | 189 | 0.0 | 4.0 | 0.00 | 0.00 | 0.00 | 87 | 1014.3 |
| 20260906061601 | 58 | 169 | 1.0 | 5.0 | 0.00 | 0.00 | 0.00 | 86 | 1014.2 |
| 20260906060109 | 58 | 142 | 0.0 | 4.0 | 0.00 | 0.00 | 0.00 | 85 | 1014.3 |
| 20260906054559 | 58 | 182 | 1.0 | 4.0 | 0.00 | 0.00 | 0.00 | 85 | 1014.2 |
| 20260906053109 | 59 | 161 | 0.0 | 5.0 | 0.00 | 0.00 | 0.00 | 84 | 1014.3 |
| 20260906051602 | 59 | 197 | 0.0 | 3.0 | 0.00 | 0.00 | 0.00 | 84 | 1014.3 |
| 20260906050135 | 59 | 0 | 1.0 | 4.0 | 0.00 | 0.00 | 0.00 | 83 | 1014.3 |
| 20260906044558 | 59 | 205 | 1.0 | 5.0 | 0.00 | 0.00 | 0.00 | 83 | 1014.4 |
| 20260906043102 | 60 | 168 | 0.0 | 5.0 | 0.00 | 0.00 | 0.00 | 82 | 1014.4 |
| 20260906041602 | 60 | 166 | 2.0 | 6.0 | 0.00 | 0.00 | 0.00 | 82 | 1014.3 |
| 20260906040138 | 61 | 139 | 0.0 | 5.0 | 0.00 | 0.00 | 0.00 | 81 | 1014.2 |
| 20260906034605 | 61 | 134 | 2.0 | 6.0 | 0.00 | 0.00 | 0.00 | 79 | 1014.1 |
| 20260906033104 | 62 | 178 | 3.0 | 7.0 | 0.00 | 0.00 | 0.00 | 77 | 1014.1 |
| 20260906031604 | 64 | 169 | 1.0 | 6.0 | 0.00 | 0.00 | 0.00 | 74 | 1014.0 |
| 20260906030107 | 65 | 176 | 2.0 | 7.0 | 0.00 | 0.00 | 0.00 | 69 | 1013.8 |
| 20260906024602 | 67 | 218 | 2.0 | 7.0 | 0.00 | 0.00 | 0.00 | 57 | 1013.8 |
| 20260906023103 | 68 | 225 | 3.0 | 7.0 | 0.00 | 0.00 | 0.00 | 55 | 1013.9 |
| 20260906021610 | 69 | 284 | 3.0 | 8.0 | 0.00 | 0.00 | 0.00 | 52 | 1013.9 |
| 20260906020106 | 71 | 285 | 4.0 | 8.0 | 0.00 | 0.00 | 0.00 | 51 | 1013.9 |
| 20260906014602 | 72 | 274 | 2.0 | 7.0 | 0.00 | 0.00 | 0.00 | 48 | 1013.8 |
| 20260906013058 | 73 | 258 | 3.0 | 10.0 | 0.00 | 0.00 | 0.00 | 46 | 1013.9 |
| 20260906011606 | 73 | 250 | 5.0 | 9.0 | 0.00 | 0.00 | 0.00 | 47 | 1013.9 |
| 20260906010109 | 74 | 293 | 4.0 | 9.0 | 0.00 | 0.00 | 0.00 | 45 | 1013.8 |
| 20260906004606 | 74 | 291 | 5.0 | 10.0 | 0.00 | 0.00 | 0.00 | 46 | 1013.8 |
| 20260906003102 | 74 | 278 | 6.0 | 12.0 | 0.00 | 0.00 | 0.00 | 44 | 1013.8 |
| 20260906001617 | 75 | 252 | 4.0 | 11.0 | 0.00 | 0.00 | 0.00 | 45 | 1013.8 |
| 20260905234600 | 77 | 312 | 4.0 | 13.0 | 0.00 | 0.00 | 0.00 | 42 | 1013.5 |
| 20260905233111 | 76 | 286 | 7.0 | 12.0 | 0.00 | 0.00 | 0.00 | 41 | 1013.4 |
| 20260905231602 | 77 | 266 | 7.0 | 14.0 | 0.00 | 0.00 | 0.00 | 39 | 1013.5 |
| 20260905230103 | 76 | 214 | 6.0 | 16.0 | 0.00 | 0.00 | 0.00 | 40 | 1013.8 |
| 20260905224608 | 76 | 260 | 9.0 | 14.0 | 0.00 | 0.00 | 0.00 | 41 | 1014.1 |
| 20260905223101 | 77 | 239 | 6.0 | 15.0 | 0.00 | 0.00 | 0.00 | 42 | 1014.1 |
| 20260905221602 | 76 | 170 | 8.0 | 16.0 | 0.00 | 0.00 | 0.00 | 42 | 1014.0 |
| 20260905220105 | 77 | 271 | 8.0 | 14.0 | 0.00 | 0.00 | 0.00 | 47 | 1014.1 |
| 20260905214600 | 77 | 216 | 7.0 | 14.0 | 0.00 | 0.00 | 0.00 | 41 | 1014.2 |
| 20260905213108 | 78 | 250 | 4.0 | 14.0 | 0.00 | 0.00 | 0.00 | 42 | 1014.2 |
| 20260905211605 | 77 | 298 | 5.0 | 14.0 | 0.00 | 0.00 | 0.00 | 43 | 1014.2 |
| 20260905210110 | 77 | 242 | 7.0 | 15.0 | 0.00 | 0.00 | 0.00 | 46 | 1014.3 |
| 20260905204556 | 77 | 211 | 6.0 | 11.0 | 0.00 | 0.00 | 0.00 | 46 | 1014.1 |
| 20260905203102 | 78 | 260 | 5.0 | 9.0 | 0.00 | 0.00 | 0.00 | 45 | 1014.1 |
| 20260905201609 | 76 | 300 | 6.0 | 10.0 | 0.00 | 0.00 | 0.00 | 46 | 1014.2 |
| 20260905200142 | 76 | 286 | 2.0 | 10.0 | 0.00 | 0.00 | 0.00 | 52 | 1014.2 |
| 20260905194614 | 75 | 0 | 4.0 | 7.0 | 0.00 | 0.00 | 0.00 | 50 | 1014.3 |
| 20260905193107 | 74 | 0 | 2.0 | 7.0 | 0.00 | 0.00 | 0.00 | 52 | 1014.4 |
| 20260905191601 | 74 | 234 | 1.0 | 7.0 | 0.00 | 0.00 | 0.00 | 55 | 1014.7 |
| 20260905190104 | 73 | 221 | 3.0 | 9.0 | 0.00 | 0.00 | 0.00 | 58 | 1014.7 |
| 20260905184611 | 71 | 243 | 1.0 | 6.0 | 0.00 | 0.00 | 0.00 | 62 | 1014.7 |
| 20260905183112 | 70 | 168 | 1.0 | 7.0 | 0.00 | 0.00 | 0.00 | 63 | 1014.9 |
| 20260905181607 | 69 | 257 | 1.0 | 7.0 | 0.00 | 0.00 | 0.00 | 66 | 1014.8 |
| 20260905180116 | 68 | 255 | 3.0 | 8.0 | 0.00 | 0.00 | 0.00 | 69 | 1014.9 |
| 20260905174608 | 67 | 238 | 1.0 | 6.0 | 0.00 | 0.00 | 0.00 | 69 | 1014.9 |
| 20260905173106 | 64 | 343 | 2.0 | 7.0 | 0.00 | 0.00 | 0.00 | 74 | 1015.0 |
| 20260905171608 | 63 | 0 | 1.0 | 5.0 | 0.00 | 0.00 | 0.00 | 79 | 1014.9 |
| 20260905170104 | 62 | 319 | 3.0 | 5.0 | 0.00 | 0.00 | 0.00 | 80 | 1014.9 |
| 20260905164604 | 61 | 0 | 0.0 | 3.0 | 0.00 | 0.00 | 0.00 | 82 | 1014.9 |
| 20260905163103 | 58 | 0 | 1.0 | 4.0 | 0.00 | 0.00 | 0.00 | 88 | 1014.9 |
| 20260905161615 | 57 | 0 | 1.0 | 7.0 | 0.00 | 0.00 | 0.00 | 92 | 1014.9 |
| 20260905160106 | 55 | 297 | 1.0 | 4.0 | 0.00 | 0.00 | 0.00 | 93 | 1014.9 |
| 20260905154606 | 53 | 257 | 1.0 | 5.0 | 0.00 | 0.00 | 0.00 | 93 | 1014.9 |
| 20260905153105 | 54 | 259 | 0.0 | 3.0 | 0.00 | 0.00 | 0.00 | 93 | 1014.8 |
| 20260905151603 | 53 | 324 | 0.0 | 2.0 | 0.00 | 0.00 | 0.00 | 93 | 1014.7 |
| 20260905150107 | 53 | 0 | 0.0 | 0.0 | 0.00 | 0.00 | 0.00 | 94 | 1014.5 |
| 20260905144601 | 52 | 0 | 0.0 | 0.0 | 0.00 | 0.00 | 0.00 | 94 | 1014.6 |
| 20260905143105 | 51 | 0 | 0.0 | 0.0 | 0.00 | 0.00 | 0.00 | 93 | 1014.7 |
| 20260905141601 | 51 | 0 | 0.0 | 0.0 | 0.00 | 0.00 | 0.00 | 93 | 1014.5 |
| 20260905140109 | 50 | 0 | 0.0 | 0.0 | 0.00 | 0.00 | 0.00 | 93 | 1014.5 |
| 20260905134606 | 50 | 0 | 0.0 | 0.0 | 0.00 | 0.00 | 0.00 | 93 | 1014.3 |
| 20260905133103 | 50 | 0 | 0.0 | 0.0 | 0.00 | 0.00 | 0.00 | 93 | 1014.4 |
| 20260905131603 | 50 | 0 | 0.0 | 0.0 | 0.00 | 0.00 | 0.00 | 93 | 1014.3 |
| 20260905130110 | 50 | 0 | 0.0 | 0.0 | 0.00 | 0.00 | 0.00 | 93 | 1014.3 |
| 20260905124601 | 51 | 0 | 0.0 | 0.0 | 0.00 | 0.00 | 0.00 | 93 | 1014.2 |
| 20260905123108 | 51 | 0 | 0.0 | 0.0 | 0.00 | 0.00 | 0.00 | 93 | 1014.1 |
| 20260905121604 | 51 | 0 | 0.0 | 0.0 | 0.00 | 0.00 | 0.00 | 92 | 1014.1 |